Time;durP1;ratioP1;P1;durP2;ratioP2;P2;SDS_P1;SDS_P2;PMS_P1;PMS_P2;Temp;Humidity;BMP_temperature;BMP_pressure;BME280_temperature;BME280_humidity;BME280_pressure;Samples;Min_cycle;Max_cycle;Signal;HPM_P1;HPM_P2
2023/08/02 00:02:23;;;;;;;3.00;2.00;;;;;;;;;;4987324;28;20129;-63
2023/08/02 00:04:49;;;;;;;5.07;1.70;;;;;;;;;;4943603;28;20556;-62
2023/08/02 00:07:15;;;;;;;5.75;2.42;;;;;;;;;;4992482;28;20124;-62
2023/08/02 00:09:41;;;;;;;4.90;2.05;;;;;;;;;;4989300;28;20176;-63
2023/08/02 00:12:07;;;;;;;3.63;1.63;;;;;;;;;;4986982;28;20576;-63
2023/08/02 00:14:33;;;;;;;8.23;3.00;;;;;;;;;;4973685;28;20048;-63
2023/08/02 00:17:00;;;;;;;11.15;2.03;;;;;;;;;;4947949;28;20065;-63
2023/08/02 00:19:26;;;;;;;4.13;1.75;;;;;;;;;;4989739;28;20042;-63
2023/08/02 00:21:52;;;;;;;3.00;1.80;;;;;;;;;;4992376;28;20042;-63
2023/08/02 00:24:18;;;;;;;3.40;2.25;;;;;;;;;;4965847;28;20126;-63
2023/08/02 00:26:44;;;;;;;6.68;2.25;;;;;;;;;;4996465;28;20099;-63
2023/08/02 00:29:10;;;;;;;8.02;1.83;;;;;;;;;;4985484;28;20050;-63
2023/08/02 00:31:36;;;;;;;5.03;2.22;;;;;;;;;;4989714;28;20030;-62
2023/08/02 00:34:02;;;;;;;4.60;1.63;;;;;;;;;;4984532;28;20434;-63
2023/08/02 00:36:28;;;;;;;3.75;1.75;;;;;;;;;;4988879;28;20085;-63
2023/08/02 00:38:55;;;;;;;5.57;2.20;;;;;;;;;;4986574;28;20121;-62
2023/08/02 00:41:21;;;;;;;10.43;2.55;;;;;;;;;;4995133;28;20041;-63
2023/08/02 00:43:47;;;;;;;4.22;1.75;;;;;;;;;;4987331;28;20066;-62
2023/08/02 00:46:15;;;;;;;4.28;2.10;;;;;;;;;;4987451;28;20659;-63
2023/08/02 00:48:43;;;;;;;3.80;2.03;;;;;;;;;;4987560;28;20042;-62
2023/08/02 00:51:15;;;;;;;5.55;2.30;;;;;;;;;;4986612;28;20129;-62
2023/08/02 00:53:44;;;;;;;4.88;2.38;;;;;;;;;;4986739;28;20260;-62
2023/08/02 00:56:11;;;;;;;5.05;1.83;;;;;;;;;;4981682;28;20415;-63
2023/08/02 00:58:37;;;;;;;4.97;1.92;;;;;;;;;;4981231;28;20478;-62
2023/08/02 01:01:09;;;;;;;4.38;1.88;;;;;;;;;;4991573;28;20065;-62
2023/08/02 01:03:41;;;;;;;10.13;3.08;;;;;;;;;;4963248;28;20038;-63
2023/08/02 01:06:12;;;;;;;8.27;3.33;;;;;;;;;;4990511;28;20120;-62
2023/08/02 01:08:41;;;;;;;5.22;2.35;;;;;;;;;;4995465;28;20283;-62
2023/08/02 01:11:26;;;;;;;13.57;3.25;;;;;;;;;;4989428;28;20105;-63
2023/08/02 01:13:54;;;;;;;6.50;2.97;;;;;;;;;;4992201;28;20057;-62
2023/08/02 01:16:20;;;;;;;5.63;2.70;;;;;;;;;;4989735;28;20193;-62
2023/08/02 01:18:46;;;;;;;6.30;2.92;;;;;;;;;;4975098;28;20532;-63
2023/08/02 01:21:12;;;;;;;7.72;4.35;;;;;;;;;;4990825;28;20041;-62
2023/08/02 01:23:39;;;;;;;8.55;4.20;;;;;;;;;;4990725;28;20039;-63
2023/08/02 01:26:05;;;;;;;6.80;3.50;;;;;;;;;;4974094;28;20194;-63
2023/08/02 01:28:33;;;;;;;11.32;2.83;;;;;;;;;;4997591;28;20050;-63
2023/08/02 01:31:01;;;;;;;9.63;3.70;;;;;;;;;;4989355;28;20509;-66
2023/08/02 01:33:28;;;;;;;5.65;2.95;;;;;;;;;;4990735;28;20095;-63
2023/08/02 01:35:59;;;;;;;;;;;;;;;;;;4989959;28;20702;-63
2023/08/02 01:38:25;;;;;;;6.70;3.40;;;;;;;;;;4990836;28;19918;-63
2023/08/02 01:40:52;;;;;;;7.50;3.05;;;;;;;;;;4979055;28;20042;-63
2023/08/02 01:43:18;;;;;;;5.45;3.53;;;;;;;;;;4987811;28;20061;-63
2023/08/02 01:45:44;;;;;;;5.75;3.00;;;;;;;;;;4987738;28;20108;-63
2023/08/02 01:48:10;;;;;;;8.43;3.42;;;;;;;;;;4990372;28;20113;-62
2023/08/02 01:50:36;;;;;;;9.20;4.30;;;;;;;;;;4971610;28;20474;-62
2023/08/02 01:53:02;;;;;;;11.20;4.15;;;;;;;;;;4955685;28;20205;-63
2023/08/02 01:55:28;;;;;;;9.25;4.82;;;;;;;;;;4975243;28;20442;-63
2023/08/02 01:57:55;;;;;;;7.05;4.35;;;;;;;;;;4971314;28;20038;-63
2023/08/02 02:00:21;;;;;;;9.23;5.03;;;;;;;;;;4989214;28;20053;-63
2023/08/02 02:02:47;;;;;;;8.73;3.90;;;;;;;;;;4990121;28;20450;-64
2023/08/02 02:05:13;;;;;;;9.57;4.50;;;;;;;;;;4990212;28;20042;-64
2023/08/02 02:07:39;;;;;;;6.68;4.20;;;;;;;;;;4987628;28;20042;-63
2023/08/02 02:10:05;;;;;;;6.35;3.88;;;;;;;;;;4995611;28;20509;-62
2023/08/02 02:12:31;;;;;;;7.78;4.53;;;;;;;;;;4989669;28;20073;-63
2023/08/02 02:14:57;;;;;;;7.47;3.88;;;;;;;;;;4989963;28;20339;-63
2023/08/02 02:17:24;;;;;;;10.00;4.00;;;;;;;;;;4990670;28;20532;-63
2023/08/02 02:19:50;;;;;;;9.32;4.10;;;;;;;;;;4975339;28;20030;-63
2023/08/02 02:22:16;;;;;;;6.43;3.90;;;;;;;;;;4990375;28;20097;-63
2023/08/02 02:24:42;;;;;;;6.57;3.88;;;;;;;;;;4988672;28;20038;-63
2023/08/02 02:27:08;;;;;;;5.75;3.80;;;;;;;;;;4971666;28;20047;-63
2023/08/02 02:29:34;;;;;;;4.72;3.35;;;;;;;;;;4988807;28;20093;-63
2023/08/02 02:32:00;;;;;;;8.63;4.18;;;;;;;;;;4989754;28;20053;-63
2023/08/02 02:34:26;;;;;;;11.85;4.20;;;;;;;;;;4989628;28;20044;-63
2023/08/02 02:36:52;;;;;;;4.45;3.50;;;;;;;;;;4991319;28;20434;-63
2023/08/02 02:39:19;;;;;;;7.97;3.97;;;;;;;;;;4988953;28;20034;-63
2023/08/02 02:41:45;;;;;;;9.23;4.38;;;;;;;;;;4956383;28;20149;-63
2023/08/02 02:44:11;;;;;;;6.07;3.45;;;;;;;;;;4988479;28;20464;-62
2023/08/02 02:46:37;;;;;;;5.40;3.08;;;;;;;;;;4989461;28;20042;-63
2023/08/02 02:49:03;;;;;;;10.40;3.80;;;;;;;;;;4984182;28;20046;-62
2023/08/02 02:51:29;;;;;;;8.05;3.35;;;;;;;;;;4995775;28;20520;-62
2023/08/02 02:53:55;;;;;;;7.85;4.22;;;;;;;;;;4988564;28;20078;-62
2023/08/02 02:56:23;;;;;;;11.07;3.33;;;;;;;;;;4972951;28;20145;-65
2023/08/02 02:58:49;;;;;;;10.85;4.18;;;;;;;;;;4988191;28;20047;-63
2023/08/02 03:01:15;;;;;;;5.68;4.00;;;;;;;;;;4986773;28;20144;-62
2023/08/02 03:03:41;;;;;;;9.30;3.63;;;;;;;;;;4989252;28;20045;-62
2023/08/02 03:06:07;;;;;;;6.95;4.38;;;;;;;;;;4988897;28;20121;-62
2023/08/02 03:08:35;;;;;;;5.90;3.85;;;;;;;;;;4988174;28;20038;-62
2023/08/02 03:11:01;;;;;;;9.18;3.92;;;;;;;;;;4988077;28;20485;-62
2023/08/02 03:13:27;;;;;;;8.38;4.50;;;;;;;;;;4989596;28;20065;-62
2023/08/02 03:15:56;;;;;;;10.00;4.75;;;;;;;;;;4988271;28;20050;-63
2023/08/02 03:18:22;;;;;;;7.97;4.50;;;;;;;;;;4972477;28;20034;-62
2023/08/02 03:20:50;;;;;;;8.95;4.07;;;;;;;;;;4969849;28;20635;-62
2023/08/02 03:23:16;;;;;;;10.95;5.03;;;;;;;;;;4970143;28;20092;-63
2023/08/02 03:25:42;;;;;;;9.77;4.07;;;;;;;;;;4982020;28;20065;-62
2023/08/02 03:28:08;;;;;;;10.13;4.53;;;;;;;;;;4988049;28;20528;-62
2023/08/02 03:30:35;;;;;;;8.13;4.35;;;;;;;;;;4988808;28;20537;-62
2023/08/02 03:33:01;;;;;;;14.88;4.68;;;;;;;;;;4980879;28;20122;-62
2023/08/02 03:35:27;;;;;;;11.25;4.43;;;;;;;;;;4988437;28;20504;-63
2023/08/02 03:37:53;;;;;;;7.85;5.10;;;;;;;;;;4971369;28;20034;-62
2023/08/02 03:40:19;;;;;;;7.28;3.78;;;;;;;;;;4989405;28;20363;-63
2023/08/02 03:42:45;;;;;;;6.60;3.80;;;;;;;;;;4988524;28;20513;-63
2023/08/02 03:45:12;;;;;;;11.77;5.32;;;;;;;;;;4987803;28;20046;-63
2023/08/02 03:47:38;;;;;;;9.77;4.60;;;;;;;;;;4987687;28;20042;-63
2023/08/02 03:50:04;;;;;;;7.63;3.97;;;;;;;;;;4988804;28;20498;-63
2023/08/02 03:52:31;;;;;;;8.20;4.72;;;;;;;;;;4986303;28;20048;-62
2023/08/02 03:54:57;;;;;;;10.90;5.40;;;;;;;;;;4971728;28;20090;-63
2023/08/02 03:57:23;;;;;;;12.43;5.43;;;;;;;;;;4984090;28;20045;-62
2023/08/02 03:59:49;;;;;;;8.57;4.07;;;;;;;;;;4988040;28;20054;-62
2023/08/02 04:02:15;;;;;;;12.13;5.57;;;;;;;;;;4988028;28;20572;-62
2023/08/02 04:04:41;;;;;;;15.85;5.57;;;;;;;;;;4988130;28;20117;-62
2023/08/02 04:07:07;;;;;;;11.57;5.18;;;;;;;;;;4969095;28;20113;-62
2023/08/02 04:09:33;;;;;;;10.23;4.65;;;;;;;;;;4987378;28;20042;-62
2023/08/02 04:12:00;;;;;;;11.80;5.93;;;;;;;;;;4988352;28;20038;-61
2023/08/02 04:14:26;;;;;;;15.90;6.05;;;;;;;;;;4982987;28;20490;-62
2023/08/02 04:16:52;;;;;;;9.73;5.45;;;;;;;;;;4978131;28;20034;-61
2023/08/02 04:19:18;;;;;;;14.82;6.13;;;;;;;;;;4970935;28;20058;-62
2023/08/02 04:21:44;;;;;;;10.15;5.03;;;;;;;;;;4987177;28;20042;-62
2023/08/02 04:24:11;;;;;;;9.80;5.95;;;;;;;;;;4983838;28;20402;-62
2023/08/02 04:26:37;;;;;;;9.95;5.35;;;;;;;;;;4987133;28;20497;-62
2023/08/02 04:29:03;;;;;;;15.18;5.57;;;;;;;;;;4967606;28;20109;-62
2023/08/02 04:31:29;;;;;;;14.88;6.22;;;;;;;;;;4987715;28;20089;-62
2023/08/02 04:33:58;;;;;;;11.02;5.63;;;;;;;;;;4970337;28;20588;-62
2023/08/02 04:36:24;;;;;;;12.82;5.45;;;;;;;;;;4986430;28;20049;-63
2023/08/02 04:38:53;;;;;;;14.07;6.45;;;;;;;;;;4987231;28;20046;-62
2023/08/02 04:41:19;;;;;;;16.85;6.47;;;;;;;;;;4988555;28;20054;-62
2023/08/02 04:43:48;;;;;;;14.43;6.13;;;;;;;;;;4987796;28;20375;-62
2023/08/02 04:46:14;;;;;;;12.55;6.07;;;;;;;;;;4988149;28;20088;-62
2023/08/02 04:48:40;;;;;;;8.93;5.10;;;;;;;;;;4984939;28;20173;-63
2023/08/02 04:51:10;;;;;;;13.52;6.25;;;;;;;;;;4985480;28;20546;-62
2023/08/02 04:53:37;;;;;;;12.48;5.63;;;;;;;;;;4987051;28;20057;-63
2023/08/02 04:56:08;;;;;;;10.85;5.78;;;;;;;;;;4988332;28;20038;-62
2023/08/02 04:58:35;;;;;;;9.98;6.00;;;;;;;;;;4984474;28;20038;-62
2023/08/02 05:01:02;;;;;;;13.93;6.47;;;;;;;;;;4987452;28;20046;-62
2023/08/02 05:03:28;;;;;;;14.85;6.20;;;;;;;;;;4987307;28;20062;-63
2023/08/02 05:06:01;;;;;;;12.18;6.43;;;;;;;;;;4987128;28;20042;-62
2023/08/02 05:08:31;;;;;;;13.13;5.68;;;;;;;;;;4986571;28;20042;-62
2023/08/02 05:10:57;;;;;;;13.50;6.63;;;;;;;;;;4976665;28;20054;-62
2023/08/02 05:13:24;;;;;;;9.75;6.00;;;;;;;;;;4984535;28;20100;-62
2023/08/02 05:15:50;;;;;;;11.68;6.32;;;;;;;;;;4960964;28;20244;-62
2023/08/02 05:18:19;;;;;;;8.50;5.97;;;;;;;;;;4965217;28;20125;-63
2023/08/02 05:20:45;;;;;;;11.73;6.95;;;;;;;;;;4983080;28;20137;-62
2023/08/02 05:23:12;;;;;;;10.15;6.18;;;;;;;;;;4982717;28;20502;-62
2023/08/02 05:25:38;;;;;;;17.98;6.30;;;;;;;;;;4982460;28;20144;-62
2023/08/02 05:28:05;;;;;;;10.27;5.75;;;;;;;;;;4983463;28;20053;-62
2023/08/02 05:30:32;;;;;;;13.55;6.63;;;;;;;;;;4977360;28;20053;-63
2023/08/02 05:32:58;;;;;;;15.90;7.22;;;;;;;;;;4979826;28;20073;-63
2023/08/02 05:35:25;;;;;;;18.38;6.90;;;;;;;;;;4939036;28;20655;-63
2023/08/02 05:37:54;;;;;;;13.57;6.25;;;;;;;;;;4983287;28;20069;-63
2023/08/02 05:40:20;;;;;;;10.43;5.88;;;;;;;;;;4985156;28;20042;-63
2023/08/02 05:42:48;;;;;;;12.02;6.47;;;;;;;;;;4962390;28;20219;-63
2023/08/02 05:45:15;;;;;;;11.88;7.25;;;;;;;;;;4986626;28;20054;-63
2023/08/02 05:47:41;;;;;;;9.15;5.90;;;;;;;;;;4986849;28;20046;-61
2023/08/02 05:50:07;;;;;;;14.25;6.45;;;;;;;;;;4987692;28;20049;-62
2023/08/02 05:52:33;;;;;;;9.73;5.80;;;;;;;;;;4969350;28;20050;-62
2023/08/02 05:55:00;;;;;;;15.43;6.57;;;;;;;;;;4980394;28;20993;-61
2023/08/02 05:57:26;;;;;;;10.63;6.55;;;;;;;;;;4977620;28;20510;-61
2023/08/02 05:59:52;;;;;;;12.32;6.68;;;;;;;;;;4982123;28;20030;-61
2023/08/02 06:02:18;;;;;;;10.10;6.40;;;;;;;;;;4986791;28;20405;-62
2023/08/02 06:04:45;;;;;;;9.93;5.90;;;;;;;;;;4987675;28;20042;-63
2023/08/02 06:07:12;;;;;;;12.45;6.55;;;;;;;;;;4950982;28;20046;-63
2023/08/02 06:09:39;;;;;;;15.60;7.45;;;;;;;;;;4986082;28;20054;-62
2023/08/02 06:12:05;;;;;;;12.68;6.80;;;;;;;;;;4989997;28;20042;-62
2023/08/02 06:14:31;;;;;;;13.02;7.03;;;;;;;;;;4986997;28;20058;-62
2023/08/02 06:16:57;;;;;;;10.98;7.80;;;;;;;;;;4987735;28;20517;-61
2023/08/02 06:19:25;;;;;;;9.63;6.00;;;;;;;;;;4963944;28;20493;-61
2023/08/02 06:21:51;;;;;;;13.00;7.25;;;;;;;;;;4975859;28;20042;-63
2023/08/02 06:24:17;;;;;;;12.93;7.18;;;;;;;;;;4961719;28;20042;-63
2023/08/02 06:26:43;;;;;;;12.02;6.30;;;;;;;;;;4963197;28;20066;-63
2023/08/02 06:29:11;;;;;;;10.82;5.85;;;;;;;;;;4978025;28;20054;-62
2023/08/02 06:31:37;;;;;;;10.98;5.93;;;;;;;;;;4979586;28;20513;-63
2023/08/02 06:34:03;;;;;;;9.82;6.85;;;;;;;;;;4977428;28;20196;-63
2023/08/02 06:36:29;;;;;;;17.17;6.95;;;;;;;;;;4980014;28;20054;-63
2023/08/02 06:38:55;;;;;;;17.75;6.82;;;;;;;;;;4980690;28;20052;-63
2023/08/02 06:41:21;;;;;;;16.02;6.38;;;;;;;;;;4962461;28;20472;-61
2023/08/02 06:43:48;;;;;;;13.40;6.20;;;;;;;;;;4940203;28;20074;-61
2023/08/02 06:46:14;;;;;;;9.43;5.63;;;;;;;;;;4958848;28;20050;-62
2023/08/02 06:48:40;;;;;;;12.02;6.43;;;;;;;;;;4980681;28;20069;-61
2023/08/02 06:51:06;;;;;;;12.98;6.32;;;;;;;;;;4964784;28;20073;-61
2023/08/02 06:53:33;;;;;;;11.38;6.65;;;;;;;;;;4983026;28;20049;-61
2023/08/02 06:55:59;;;;;;;11.82;5.88;;;;;;;;;;4976040;28;20436;-62
2023/08/02 06:58:25;;;;;;;14.60;5.65;;;;;;;;;;4962948;28;20042;-62
2023/08/02 07:00:52;;;;;;;10.00;5.35;;;;;;;;;;4972135;28;20128;-62
2023/08/02 07:03:21;;;;;;;9.68;5.60;;;;;;;;;;4943753;28;20035;-62
2023/08/02 07:05:47;;;;;;;16.33;6.50;;;;;;;;;;4980111;28;20350;-62
2023/08/02 07:08:14;;;;;;;9.80;6.05;;;;;;;;;;4977151;28;20294;-62
2023/08/02 07:10:40;;;;;;;10.25;5.28;;;;;;;;;;4966115;28;20039;-62
2023/08/02 07:13:06;;;;;;;11.63;5.47;;;;;;;;;;4974283;28;20146;-62
2023/08/02 07:15:32;;;;;;;10.98;5.40;;;;;;;;;;4972311;28;20058;-62
2023/08/02 07:17:58;;;;;;;9.57;5.38;;;;;;;;;;4957371;28;20161;-62
2023/08/02 07:20:25;;;;;;;17.60;6.60;;;;;;;;;;4957997;28;20117;-62
2023/08/02 07:22:52;;;;;;;13.05;5.25;;;;;;;;;;4980404;28;20068;-62
2023/08/02 07:25:18;;;;;;;9.38;5.78;;;;;;;;;;4977419;28;20145;-61
2023/08/02 07:27:44;;;;;;;12.82;5.68;;;;;;;;;;4972799;28;20120;-62
2023/08/02 07:30:10;;;;;;;10.05;4.78;;;;;;;;;;4973682;28;20051;-62
2023/08/02 07:32:36;;;;;;;10.80;4.55;;;;;;;;;;4970429;28;20051;-62
2023/08/02 07:35:02;;;;;;;9.50;4.75;;;;;;;;;;4977450;28;20042;-62
2023/08/02 07:37:29;;;;;;;10.35;5.25;;;;;;;;;;4972974;28;20042;-62
2023/08/02 07:39:55;;;;;;;12.50;5.50;;;;;;;;;;4970014;28;20078;-62
2023/08/02 07:42:21;;;;;;;10.40;5.43;;;;;;;;;;4977774;28;20545;-62
2023/08/02 07:45:07;;;;;;;7.20;4.75;;;;;;;;;;4957593;28;21374;-62
2023/08/02 07:47:34;;;;;;;11.52;5.68;;;;;;;;;;4977935;28;20041;-62
2023/08/02 07:50:00;;;;;;;15.38;6.05;;;;;;;;;;4980929;28;20046;-62
2023/08/02 07:52:26;;;;;;;8.63;5.60;;;;;;;;;;4975686;28;20050;-62
2023/08/02 07:54:53;;;;;;;10.85;5.22;;;;;;;;;;4972534;28;20186;-62
2023/08/02 07:57:23;;;;;;;9.35;4.70;;;;;;;;;;4975560;28;20046;-61
2023/08/02 07:59:50;;;;;;;8.63;5.15;;;;;;;;;;4978353;28;20042;-62
2023/08/02 08:02:16;;;;;;;6.22;4.55;;;;;;;;;;4974487;28;20048;-63
2023/08/02 08:04:42;;;;;;;8.65;4.57;;;;;;;;;;4978407;28;20038;-63
2023/08/02 08:07:08;;;;;;;11.65;4.90;;;;;;;;;;4979246;28;20069;-62
2023/08/02 08:09:35;;;;;;;9.50;4.50;;;;;;;;;;4975565;28;20053;-63
2023/08/02 08:12:07;;;;;;;10.13;4.68;;;;;;;;;;4973642;28;20093;-62
2023/08/02 08:14:33;;;;;;;6.97;4.53;;;;;;;;;;4962308;28;20122;-62
2023/08/02 08:17:00;;;;;;;7.70;4.53;;;;;;;;;;4980095;28;20082;-61
2023/08/02 08:19:27;;;;;;;7.10;4.50;;;;;;;;;;4977132;28;20494;-62
2023/08/02 08:21:54;;;;;;;6.90;4.20;;;;;;;;;;4964695;28;20453;-62
2023/08/02 08:24:20;;;;;;;7.22;4.25;;;;;;;;;;4948124;28;20046;-62
2023/08/02 08:26:46;;;;;;;8.23;4.65;;;;;;;;;;4976322;28;20129;-61
2023/08/02 08:29:13;;;;;;;6.25;3.67;;;;;;;;;;4978575;28;20524;-62
2023/08/02 08:31:39;;;;;;;12.90;4.43;;;;;;;;;;4954172;28;20382;-62
2023/08/02 08:34:05;;;;;;;5.65;3.92;;;;;;;;;;4976750;28;20572;-62
2023/08/02 08:36:31;;;;;;;5.90;4.30;;;;;;;;;;4975477;28;20050;-62
2023/08/02 08:38:58;;;;;;;9.00;3.83;;;;;;;;;;4976294;28;20054;-62
2023/08/02 08:41:24;;;;;;;9.27;4.63;;;;;;;;;;4977173;28;20030;-62
2023/08/02 08:43:50;;;;;;;8.07;3.97;;;;;;;;;;4956583;28;20461;-62
2023/08/02 08:46:16;;;;;;;7.82;4.40;;;;;;;;;;4973026;28;20528;-62
2023/08/02 08:48:43;;;;;;;10.30;4.32;;;;;;;;;;4974533;28;20038;-61
2023/08/02 08:51:10;;;;;;;5.97;3.67;;;;;;;;;;4974313;28;20049;-62
2023/08/02 08:53:37;;;;;;;7.80;3.88;;;;;;;;;;4974379;28;20099;-62
2023/08/02 08:56:06;;;;;;;9.73;4.05;;;;;;;;;;4955397;28;20042;-62
2023/08/02 08:58:33;;;;;;;7.75;4.35;;;;;;;;;;4946260;28;20145;-62
2023/08/02 09:01:00;;;;;;;7.43;4.65;;;;;;;;;;4980263;28;20133;-62
2023/08/02 09:03:26;;;;;;;7.60;3.53;;;;;;;;;;4974091;28;20378;-62
2023/08/02 09:05:53;;;;;;;5.95;3.60;;;;;;;;;;4955847;28;20046;-62
2023/08/02 09:08:19;;;;;;;6.70;3.58;;;;;;;;;;4942664;28;20129;-65
2023/08/02 09:10:45;;;;;;;9.40;4.80;;;;;;;;;;4973061;28;20417;-62
2023/08/02 09:13:21;;;;;;;8.32;3.97;;;;;;;;;;4937211;28;20053;-62
2023/08/02 09:16:05;;;;;;;7.38;3.72;;;;;;;;;;4977432;28;20266;-62
2023/08/02 09:18:41;;;;;;;6.55;3.38;;;;;;;;;;4961811;28;20130;-61
2023/08/02 09:21:08;;;;;;;6.28;4.15;;;;;;;;;;4980330;28;20070;-61
2023/08/02 09:23:34;;;;;;;10.68;4.07;;;;;;;;;;4980566;28;20138;-61
2023/08/02 09:26:14;;;;;;;5.40;3.65;;;;;;;;;;4980957;28;20047;-62
2023/08/02 09:28:41;;;;;;;5.13;3.80;;;;;;;;;;4976028;28;20042;-62
2023/08/02 09:31:19;;;;;;;10.20;4.10;;;;;;;;;;4958126;28;20047;-62
2023/08/02 09:33:50;;;;;;;6.63;4.07;;;;;;;;;;4977691;28;20050;-62
2023/08/02 09:36:30;;;;;;;5.35;4.10;;;;;;;;;;4959110;28;20050;-62
2023/08/02 09:38:57;;;;;;;4.47;3.58;;;;;;;;;;4980977;28;20042;-65
2023/08/02 09:41:23;;;;;;;6.78;4.13;;;;;;;;;;4978388;28;20050;-62
2023/08/02 09:43:51;;;;;;;8.20;4.35;;;;;;;;;;4978667;28;20224;-62
2023/08/02 09:46:36;;;;;;;8.68;4.57;;;;;;;;;;4984204;28;20679;-62
2023/08/02 09:49:18;;;;;;;5.35;4.22;;;;;;;;;;4980327;28;20589;-61
2023/08/02 09:51:45;;;;;;;8.32;4.45;;;;;;;;;;4977888;28;20050;-61
2023/08/02 09:54:12;;;;;;;6.75;4.68;;;;;;;;;;4963482;28;20452;-61
2023/08/02 09:56:39;;;;;;;6.10;4.55;;;;;;;;;;4975552;28;20129;-61
2023/08/02 09:59:06;;;;;;;6.95;3.75;;;;;;;;;;4977091;28;20112;-63
2023/08/02 10:01:33;;;;;;;7.82;4.35;;;;;;;;;;4965979;28;20417;-61
2023/08/02 10:04:02;;;;;;;7.25;4.40;;;;;;;;;;4981118;28;20043;-62
2023/08/02 10:06:31;;;;;;;6.55;3.92;;;;;;;;;;4983976;28;20052;-61
2023/08/02 10:09:04;;;;;;;7.25;4.25;;;;;;;;;;4979331;28;20054;-61
2023/08/02 10:11:39;;;;;;;6.38;4.15;;;;;;;;;;4978197;28;20448;-61
2023/08/02 10:14:06;;;;;;;5.63;4.10;;;;;;;;;;4979218;28;20487;-61
2023/08/02 10:16:32;;;;;;;6.78;4.40;;;;;;;;;;4980946;28;20092;-62
2023/08/02 10:19:01;;;;;;;4.65;4.10;;;;;;;;;;4978561;28;20057;-61
2023/08/02 10:21:28;;;;;;;5.75;4.13;;;;;;;;;;4982313;28;20136;-61
2023/08/02 10:23:54;;;;;;;4.28;3.22;;;;;;;;;;4979770;28;20038;-61
2023/08/02 10:26:21;;;;;;;4.32;3.38;;;;;;;;;;4984185;28;20657;-61
2023/08/02 10:28:47;;;;;;;5.25;3.40;;;;;;;;;;4972492;28;20935;-61
2023/08/02 10:31:14;;;;;;;4.60;3.25;;;;;;;;;;4943221;28;20172;-61
2023/08/02 10:33:40;;;;;;;5.15;3.40;;;;;;;;;;4975900;28;20100;-61
2023/08/02 10:36:07;;;;;;;3.30;2.55;;;;;;;;;;4962513;28;20042;-61
2023/08/02 10:38:39;;;;;;;3.38;2.50;;;;;;;;;;4970920;28;20389;-62
2023/08/02 10:41:07;;;;;;;3.33;2.53;;;;;;;;;;4975572;28;20053;-61
2023/08/02 10:43:33;;;;;;;3.85;2.55;;;;;;;;;;4978222;28;20054;-61
2023/08/02 10:46:33;;;;;;;6.18;3.08;;;;;;;;;;4984576;28;20050;-62
2023/08/02 10:49:11;;;;;;;3.55;2.30;;;;;;;;;;4952187;28;20093;-61
2023/08/02 10:51:37;;;;;;;3.38;2.05;;;;;;;;;;4986143;28;20120;-61
2023/08/02 10:54:19;;;;;;;2.58;1.75;;;;;;;;;;4988165;28;20501;-61
2023/08/02 10:57:09;;;;;;;3.33;1.85;;;;;;;;;;4984871;28;20050;-62
2023/08/02 10:59:35;;;;;;;3.22;1.65;;;;;;;;;;4978250;28;20058;-62
2023/08/02 11:02:02;;;;;;;3.92;2.05;;;;;;;;;;4987115;28;20092;-62
2023/08/02 11:04:30;;;;;;;3.05;2.00;;;;;;;;;;4986544;28;20049;-62
2023/08/02 11:06:56;;;;;;;2.90;1.88;;;;;;;;;;4987304;28;20053;-62
2023/08/02 11:09:32;;;;;;;2.70;1.60;;;;;;;;;;4987366;28;20153;-62
2023/08/02 11:12:08;;;;;;;3.05;2.08;;;;;;;;;;4972528;28;20541;-61
2023/08/02 11:14:34;;;;;;;2.92;1.60;;;;;;;;;;4981254;28;20042;-61
2023/08/02 11:17:00;;;;;;;1.92;1.13;;;;;;;;;;4985111;28;20529;-62
2023/08/02 11:19:28;;;;;;;2.30;1.30;;;;;;;;;;4988689;28;20045;-62
2023/08/02 11:21:55;;;;;;;3.90;1.70;;;;;;;;;;4985734;28;20042;-61
2023/08/02 11:24:21;;;;;;;1.83;1.02;;;;;;;;;;4985965;28;20042;-62
2023/08/02 11:26:57;;;;;;;2.38;1.40;;;;;;;;;;4988114;28;20419;-62
2023/08/02 11:29:23;;;;;;;2.67;1.20;;;;;;;;;;4971641;28;20057;-62
2023/08/02 11:31:53;;;;;;;1.85;1.20;;;;;;;;;;4986162;28;20042;-62
2023/08/02 11:34:19;;;;;;;2.20;1.15;;;;;;;;;;4954830;28;20410;-62
2023/08/02 11:36:46;;;;;;;2.47;1.10;;;;;;;;;;4986210;28;20050;-62
2023/08/02 11:39:16;;;;;;;1.58;1.17;;;;;;;;;;4988239;28;20042;-62
2023/08/02 11:41:42;;;;;;;2.60;1.30;;;;;;;;;;4986427;28;20130;-62
2023/08/02 11:44:18;;;;;;;1.77;1.15;;;;;;;;;;4967850;28;20500;-62
2023/08/02 11:46:44;;;;;;;2.92;1.15;;;;;;;;;;4983095;28;20049;-62
2023/08/02 11:49:11;;;;;;;1.05;0.93;;;;;;;;;;4968781;28;20054;-62
2023/08/02 11:51:40;;;;;;;2.38;1.15;;;;;;;;;;4986290;28;20592;-62
2023/08/02 11:54:07;;;;;;;2.08;1.30;;;;;;;;;;4985475;28;20129;-62
2023/08/02 11:56:34;;;;;;;1.67;1.23;;;;;;;;;;4984472;28;20125;-62
2023/08/02 11:59:01;;;;;;;3.15;1.85;;;;;;;;;;4969058;28;20054;-62
2023/08/02 12:01:27;;;;;;;2.15;1.15;;;;;;;;;;4983856;28;20053;-62
2023/08/02 12:04:01;;;;;;;3.13;1.55;;;;;;;;;;4989955;28;20052;-62
2023/08/02 12:06:27;;;;;;;1.85;1.23;;;;;;;;;;4984580;28;20049;-62
2023/08/02 12:09:00;;;;;;;1.58;1.10;;;;;;;;;;4970234;28;20080;-62
2023/08/02 12:11:26;;;;;;;1.48;1.02;;;;;;;;;;4984174;28;20050;-62
2023/08/02 12:13:52;;;;;;;2.40;1.65;;;;;;;;;;4984373;28;20038;-62
2023/08/02 12:16:20;;;;;;;2.75;1.92;;;;;;;;;;4983608;28;20065;-62
2023/08/02 12:18:56;;;;;;;1.92;1.40;;;;;;;;;;4983909;28;20038;-62
2023/08/02 12:21:23;;;;;;;1.08;0.98;;;;;;;;;;4979220;28;20429;-62
2023/08/02 12:23:50;;;;;;;2.13;1.65;;;;;;;;;;4967455;28;20038;-61
2023/08/02 12:26:28;;;;;;;2.28;1.60;;;;;;;;;;4982849;28;20038;-62
2023/08/02 12:28:54;;;;;;;2.08;1.23;;;;;;;;;;4982865;28;20296;-62
2023/08/02 12:31:21;;;;;;;1.92;1.48;;;;;;;;;;4982723;28;20042;-62
2023/08/02 12:33:48;;;;;;;2.47;1.70;;;;;;;;;;4983275;28;20038;-61
2023/08/02 12:36:27;;;;;;;1.98;1.42;;;;;;;;;;4984249;28;20035;-62
2023/08/02 12:38:55;;;;;;;2.53;1.45;;;;;;;;;;4984217;28;20046;-62
2023/08/02 12:41:21;;;;;;;4.28;1.70;;;;;;;;;;4984572;28;20135;-62
2023/08/02 12:43:47;;;;;;;1.58;1.27;;;;;;;;;;4968755;28;20035;-63
2023/08/02 12:46:13;;;;;;;2.58;2.03;;;;;;;;;;4971077;28;20130;-62
2023/08/02 12:48:40;;;;;;;2.67;1.50;;;;;;;;;;4983865;28;20057;-62
2023/08/02 12:51:06;;;;;;;3.28;1.77;;;;;;;;;;4982821;28;20065;-62
2023/08/02 12:53:32;;;;;;;2.15;1.67;;;;;;;;;;4961569;28;20373;-62
2023/08/02 12:55:58;;;;;;;2.65;1.77;;;;;;;;;;4981132;28;20521;-62
2023/08/02 12:58:24;;;;;;;2.10;1.85;;;;;;;;;;4983859;28;20073;-62
2023/08/02 13:00:52;;;;;;;2.47;1.65;;;;;;;;;;4984422;28;20070;-62
2023/08/02 13:03:19;;;;;;;3.92;1.75;;;;;;;;;;4984032;28;20069;-62
2023/08/02 13:05:45;;;;;;;4.15;2.05;;;;;;;;;;4967689;28;20125;-61
2023/08/02 13:08:13;;;;;;;2.08;1.80;;;;;;;;;;4987473;28;20050;-62
2023/08/02 13:10:39;;;;;;;3.95;1.95;;;;;;;;;;4968564;28;20054;-61
2023/08/02 13:13:06;;;;;;;2.83;1.98;;;;;;;;;;4971181;28;20224;-62
2023/08/02 13:15:32;;;;;;;3.70;2.00;;;;;;;;;;4986467;28;20448;-62
2023/08/02 13:17:58;;;;;;;4.80;2.47;;;;;;;;;;4971810;28;20100;-62
2023/08/02 13:20:24;;;;;;;5.50;2.00;;;;;;;;;;4985768;28;20038;-62
2023/08/02 13:22:50;;;;;;;4.85;2.30;;;;;;;;;;4970004;28;20478;-64
2023/08/02 13:25:18;;;;;;;4.68;2.33;;;;;;;;;;4987351;28;20049;-62
2023/08/02 13:27:44;;;;;;;6.63;2.00;;;;;;;;;;4988625;28;20045;-62
2023/08/02 13:30:11;;;;;;;3.22;2.00;;;;;;;;;;4987956;28;20069;-63
2023/08/02 13:32:39;;;;;;;6.05;2.33;;;20.60;99.90;;;;;;4984387;28;20073;-62
2023/08/02 13:35:06;;;;;;;5.82;2.45;;;20.50;99.90;;;;;;4971493;28;20137;-62
2023/08/02 13:37:33;;;;;;;7.13;3.30;;;;;;;;;;4989009;28;20520;-62
2023/08/02 13:39:59;;;;;;;8.52;2.60;;;;;;;;;;4986884;28;20042;-62
2023/08/02 13:42:25;;;;;;;4.40;2.92;;;20.60;99.90;;;;;;4985876;28;20038;-62
2023/08/02 13:44:52;;;;;;;6.60;2.53;;;20.90;99.90;;;;;;4987764;28;20127;-62
2023/08/02 13:47:18;;;;;;;11.85;2.47;;;;;;;;;;4986128;28;20070;-62
2023/08/02 13:49:45;;;;;;;8.00;3.08;;;;;;;;;;4986958;28;20043;-62
2023/08/02 13:52:11;;;;;;;7.43;3.00;;;;;;;;;;4985536;28;20455;-62
2023/08/02 13:54:37;;;;;;;6.05;2.30;;;21.00;99.90;;;;;;4986886;28;20525;-62
2023/08/02 13:57:03;;;;;;;8.38;2.55;;;21.30;99.90;;;;;;4986780;28;20050;-62
2023/08/02 13:59:28;;;;;;;7.55;2.00;;;21.30;99.90;;;;;;4988718;28;20034;-62
2023/08/02 14:01:54;;;;;;;6.60;3.17;;;21.40;99.90;;;;;;4985890;28;20042;-62
2023/08/02 14:04:20;;;;;;;5.25;2.25;;;21.40;99.90;;;;;;4989285;28;20046;-62
2023/08/02 14:06:46;;;;;;;5.05;2.30;;;21.50;99.90;;;;;;4989722;28;20520;-62
2023/08/02 14:09:12;;;;;;;7.43;3.08;;;21.50;99.90;;;;;;4992157;28;20505;-62
2023/08/02 14:11:37;;;;;;;6.07;2.55;;;21.60;99.90;;;;;;4973530;28;20046;-62
2023/08/02 14:14:05;;;;;;;8.07;2.22;;;21.60;99.90;;;;;;4989207;28;20521;-62
2023/08/02 14:16:31;;;;;;;6.28;1.85;;;21.70;99.90;;;;;;4973947;28;20709;-62
2023/08/02 14:18:57;;;;;;;7.20;2.38;;;21.70;99.90;;;;;;4988656;28;20046;-62
2023/08/02 14:21:23;;;;;;;8.13;2.20;;;21.80;99.90;;;;;;4989326;28;20030;-62
2023/08/02 14:23:48;;;;;;;6.13;2.65;;;21.80;99.90;;;;;;4988645;28;20104;-62
2023/08/02 14:26:14;;;;;;;4.95;2.30;;;21.90;99.90;;;;;;4972417;28;20068;-62
2023/08/02 14:28:40;;;;;;;4.93;2.55;;;;;;;;;;4986904;28;20113;-62
2023/08/02 14:31:06;;;;;;;8.05;2.75;;;;;;;;;;4990838;28;20092;-62
2023/08/02 14:33:32;;;;;;;6.30;2.38;;;;;;;;;;4987730;28;20413;-62
2023/08/02 14:35:58;;;;;;;5.60;2.33;;;;;;;;;;4970711;28;20053;-62